Time;durP1;ratioP1;P1;durP2;ratioP2;P2;SDS_P1;SDS_P2;PMS_P1;PMS_P2;Temp;Humidity;BMP_temperature;BMP_pressure;BME280_temperature;BME280_humidity;BME280_pressure;Samples;Min_cycle;Max_cycle;Signal;HPM_P1;HPM_P2
2022/12/15 00:38:52;;;;;;;84.60;34.27;;;;;;;-7.05;100.00;100080.63;4982043;28;20109;-68
2022/12/15 00:41:18;;;;;;;78.77;34.57;;;;;;;-7.10;100.00;100087.88;4967830;28;20122;-69
2022/12/15 00:43:43;;;;;;;77.20;32.90;;;;;;;-6.90;100.00;100095.75;4975289;28;20023;-68
2022/12/15 00:48:53;;;;;;;67.47;28.93;;;;;;;-6.69;100.00;100098.34;4975151;28;20061;-68
2022/12/15 00:51:19;;;;;;;85.53;31.27;;;;;;;-6.63;100.00;100096.31;4975125;28;20062;-69
2022/12/15 01:21:09;;;;;;;68.97;30.00;;;;;;;-6.60;100.00;100082.13;4994059;28;20022;-69
2022/12/15 01:23:36;;;;;;;70.50;28.60;;;;;;;-6.63;100.00;100092.81;4993738;28;20076;-69
2022/12/15 01:26:02;;;;;;;75.93;30.33;;;;;;;-6.64;100.00;100091.13;4976719;28;20034;-69
2022/12/15 01:28:27;;;;;;;68.23;28.50;;;;;;;-6.51;100.00;100089.63;4993630;28;20117;-69
2022/12/15 01:30:53;;;;;;;59.17;26.47;;;;;;;-6.36;100.00;100088.91;4976493;28;20116;-70
2022/12/15 01:33:19;;;;;;;68.57;27.93;;;;;;;-6.18;100.00;100089.00;4993803;28;20038;-69
2022/12/15 01:35:54;;;;;;;74.13;27.83;;;;;;;-6.36;100.00;100096.81;4993631;28;20057;-68
2022/12/15 01:38:19;;;;;;;69.47;27.60;;;;;;;-6.22;100.00;100092.69;4976317;28;20077;-68
2022/12/15 01:40:52;;;;;;;57.93;26.03;;;;;;;-6.14;100.00;100098.44;4976314;28;20452;-71
2022/12/15 01:43:21;;;;;;;63.90;27.90;;;;;;;-6.23;100.00;100091.00;4976130;28;20029;-68
2022/12/15 01:45:55;;;;;;;58.90;25.03;;;;;;;-6.47;100.00;100087.69;4975936;28;20026;-68
2022/12/15 01:48:47;;;;;;;62.50;26.27;;;;;;;-6.40;100.00;100100.50;4974714;28;20058;-69
2022/12/15 01:51:36;;;;;;;68.10;27.93;;;;;;;-6.37;100.00;100095.13;4976138;28;20054;-68
2022/12/15 01:54:22;;;;;;;58.30;26.67;;;;;;;-6.32;100.00;100089.66;4975858;28;20033;-68
2022/12/15 01:56:52;;;;;;;58.13;25.67;;;;;;;-6.35;100.00;100090.63;4975610;28;20451;-69
2022/12/15 01:59:42;;;;;;;66.03;27.50;;;;;;;-6.37;100.00;100100.38;4993573;28;20124;-69
2022/12/15 02:02:09;;;;;;;63.77;26.63;;;;;;;-6.18;100.00;100112.72;4982561;28;20042;-69
2022/12/15 02:04:36;;;;;;;56.77;25.13;;;;;;;-6.13;100.00;100115.97;4972630;28;20022;-69
2022/12/15 02:07:02;;;;;;;57.27;26.70;;;;;;;-6.13;100.00;100130.03;4956737;28;20069;-69
2022/12/15 02:09:28;;;;;;;64.63;26.10;;;;;;;-6.40;100.00;100121.56;4956511;28;20069;-69
2022/12/15 02:12:00;;;;;;;63.90;27.40;;;;;;;-6.34;100.00;100121.31;4973756;28;20053;-69
2022/12/15 02:14:54;;;;;;;65.47;27.33;;;;;;;-6.59;100.00;100125.97;4966054;28;20089;-69
2022/12/15 02:17:57;;;;;;;65.93;28.10;;;;;;;-6.70;100.00;100117.72;4975164;28;20034;-70
2022/12/15 02:20:47;;;;;;;62.80;26.13;;;;;;;-6.57;100.00;100124.13;4975241;28;20073;-69
2022/12/15 02:23:34;;;;;;;61.07;27.10;;;;;;;-6.57;100.00;100129.41;4975386;28;20120;-69
2022/12/15 02:26:10;;;;;;;66.33;27.67;;;;;;;-6.80;100.00;100117.25;4975675;28;20121;-69
2022/12/15 02:28:47;;;;;;;67.90;28.70;;;;;;;-6.80;100.00;100116.41;4992810;28;20034;-69
2022/12/15 02:34:34;;;;;;;63.10;27.23;;;;;;;-7.04;100.00;100108.66;4992660;28;20035;-69
2022/12/15 02:37:30;;;;;;;63.53;28.13;;;;;;;-6.94;100.00;100120.47;4975022;28;20050;-69
2022/12/15 02:39:56;;;;;;;63.17;26.40;;;;;;;-6.80;100.00;100121.66;4975389;28;20040;-71
2022/12/15 02:42:22;;;;;;;64.33;24.80;;;;;;;-6.81;100.00;100126.06;4974897;28;20098;-69
2022/12/15 02:44:56;;;;;;;63.50;27.63;;;;;;;-6.84;100.00;100121.81;4975192;28;20108;-69
2022/12/15 02:47:37;;;;;;;60.47;24.37;;;;;;;-6.85;100.00;100119.22;4974937;28;20057;-69
2022/12/15 02:50:40;;;;;;;58.30;25.55;;;;;;;-6.71;100.00;100121.28;4968774;28;20045;-69
2022/12/15 02:53:43;;;;;;;60.47;25.57;;;;;;;-6.80;100.00;100122.50;4972705;28;20077;-69
2022/12/15 02:56:22;;;;;;;64.03;28.03;;;;;;;-6.94;100.00;100117.84;4955611;28;20027;-69
2022/12/15 02:59:01;;;;;;;63.80;26.27;;;;;;;-6.85;100.00;100125.38;4955210;28;20026;-69
2022/12/15 03:01:37;;;;;;;72.70;28.10;;;;;;;-6.83;100.00;100127.91;4955420;28;20023;-69
2022/12/15 03:04:05;;;;;;;61.37;26.50;;;;;;;-6.91;100.00;100123.00;4955560;28;20031;-69
2022/12/15 03:06:30;;;;;;;52.83;24.27;;;;;;;-6.91;100.00;100124.75;4955305;28;20042;-68
2022/12/15 03:08:56;;;;;;;63.70;26.97;;;;;;;-6.75;100.00;100119.69;4955054;28;20073;-69
2022/12/15 03:11:21;;;;;;;61.43;28.50;;;;;;;-6.71;100.00;100121.28;4972566;28;20030;-70
2022/12/15 03:13:47;;;;;;;69.77;27.37;;;;;;;-6.61;100.00;100119.91;4955460;28;20062;-69
2022/12/15 03:16:12;;;;;;;60.17;25.97;;;;;;;-6.64;100.00;100112.19;4955530;28;20039;-69
2022/12/15 03:18:37;;;;;;;60.63;26.00;;;;;;;-6.65;100.00;100110.44;4956109;28;20057;-69
2022/12/15 03:21:03;;;;;;;64.97;26.40;;;;;;;-6.70;100.00;100107.19;4974666;28;20554;-69
2022/12/15 03:23:28;;;;;;;58.03;25.93;;;;;;;-6.68;100.00;100110.59;4991937;28;20185;-69
2022/12/15 03:25:54;;;;;;;62.17;26.37;;;;;;;-6.44;100.00;100120.03;4991745;28;20030;-69
2022/12/15 03:28:20;;;;;;;59.60;24.50;;;;;;;-6.40;100.00;100126.84;4991953;28;20022;-69
2022/12/15 03:30:46;;;;;;;59.73;26.60;;;;;;;-6.23;100.00;100122.59;4974434;28;20101;-69
2022/12/15 03:33:12;;;;;;;60.03;24.90;;;;;;;-6.09;100.00;100122.81;4974352;28;20042;-69
2022/12/15 03:35:37;;;;;;;56.73;24.63;;;;;;;-6.11;100.00;100138.69;4973991;28;20022;-69
2022/12/15 03:38:02;;;;;;;53.30;23.37;;;;;;;-5.90;100.00;100136.78;4974376;28;20062;-69
2022/12/15 03:40:28;;;;;;;64.63;24.93;;;;;;;-6.06;100.00;100128.81;4974196;28;20022;-69
2022/12/15 03:42:53;;;;;;;48.63;22.80;;;;;;;-5.87;100.00;100131.41;4974921;28;20030;-69
2022/12/15 03:45:24;;;;;;;48.43;21.33;;;;;;;-6.03;100.00;100130.44;4974463;28;20022;-69
2022/12/15 03:47:50;;;;;;;55.00;23.73;;;;;;;-6.03;100.00;100130.44;4974452;28;20030;-69
2022/12/15 03:50:18;;;;;;;57.47;24.03;;;;;;;-6.18;100.00;100125.88;4974797;28;20085;-69
2022/12/15 03:52:44;;;;;;;54.57;24.60;;;;;;;-6.07;100.00;100128.84;4974518;28;20081;-69
2022/12/15 03:55:10;;;;;;;59.17;25.30;;;;;;;-5.99;100.00;100132.00;4974315;28;20034;-69
2022/12/15 03:57:36;;;;;;;67.73;27.03;;;;;;;-6.04;100.00;100134.84;4974002;28;20026;-69
2022/12/15 04:00:02;;;;;;;54.07;24.40;;;;;;;-6.13;100.00;100134.41;4991671;28;20078;-69
2022/12/15 04:02:27;;;;;;;64.47;25.23;;;;;;;-6.12;100.00;100130.88;4974276;28;20038;-69
2022/12/15 04:04:53;;;;;;;63.53;25.50;;;;;;;-6.33;100.00;100138.81;4974282;28;20130;-69
2022/12/15 04:07:18;;;;;;;56.23;24.53;;;;;;;-6.26;100.00;100133.25;4958015;28;20035;-69
2022/12/15 04:09:43;;;;;;;64.40;25.93;;;;;;;-6.35;100.00;100135.41;4954794;28;20073;-70
2022/12/15 04:12:12;;;;;;;60.37;26.63;;;;;;;-6.32;100.00;100134.41;4956301;28;20113;-69
2022/12/15 04:14:41;;;;;;;59.27;25.33;;;;;;;-6.43;100.00;100141.94;4975753;28;20051;-69
2022/12/15 04:17:10;;;;;;;83.77;30.03;;;;;;;-6.64;100.00;100149.03;4958434;28;20031;-69
2022/12/15 04:22:20;;;;;;;61.90;26.97;;;;;;;-6.65;100.00;100147.28;4994684;28;20077;-69
2022/12/15 05:33:08;;;;;;;70.53;28.33;;;;;;;-5.56;100.00;100164.19;4974429;28;20034;-70
2022/12/15 05:35:33;;;;;;;65.00;26.80;;;;;;;-5.40;100.00;100167.81;4973877;28;20034;-70
2022/12/15 05:37:58;;;;;;;65.50;26.43;;;;;;;-5.42;100.00;100185.47;4957354;28;20034;-70
2022/12/15 05:40:24;;;;;;;79.60;30.03;;;;;;;-5.12;100.00;100182.28;4956686;28;20035;-70
2022/12/15 05:42:49;;;;;;;64.93;27.67;;;;;;;-5.56;100.00;100187.91;4957087;28;20030;-70
2022/12/15 05:45:14;;;;;;;69.27;28.37;;;;;;;-6.25;100.00;100187.69;4956841;28;20031;-70
2022/12/15 05:47:40;;;;;;;76.50;27.97;;;;;;;-6.03;100.00;100183.13;4956742;28;20044;-70
2022/12/15 05:50:06;;;;;;;65.03;29.20;;;;;;;-5.83;100.00;100185.66;4974188;28;20440;-70
2022/12/15 05:52:31;;;;;;;72.87;30.57;;;;;;;-6.11;100.00;100180.00;4956783;28;20077;-70
2022/12/15 05:54:57;;;;;;;66.87;30.00;;;;;;;-6.30;100.00;100195.78;4956645;28;20038;-69
2022/12/15 05:57:22;;;;;;;74.97;31.17;;;;;;;-6.36;100.00;100194.25;4988967;28;20041;-70
2022/12/15 05:59:47;;;;;;;86.63;33.27;;;;;;;-6.24;100.00;100206.03;4993849;28;20097;-70
2022/12/15 06:02:12;;;;;;;79.77;31.57;;;;;;;-6.32;100.00;100216.91;4975676;28;20468;-70
2022/12/15 06:04:38;;;;;;;74.10;30.70;;;;;;;-6.32;100.00;100209.03;4976295;28;20030;-70
2022/12/15 06:07:03;;;;;;;72.23;31.03;;;;;;;-6.34;100.00;100205.56;4975989;28;20085;-70
2022/12/15 06:09:28;;;;;;;81.17;30.63;;;;;;;-6.35;100.00;100208.28;4975941;28;20092;-70
2022/12/15 06:11:54;;;;;;;78.43;32.00;;;;;;;-6.55;100.00;100209.16;4992959;28;20038;-70
2022/12/15 06:14:19;;;;;;;72.73;31.40;;;;;;;-6.36;100.00;100222.38;4975348;28;20080;-70
2022/12/15 06:16:45;;;;;;;77.00;31.57;;;;;;;-6.20;100.00;100227.81;4992735;28;20072;-70
2022/12/15 06:19:10;;;;;;;79.27;27.57;;;;;;;-6.25;100.00;100235.09;4975716;28;20113;-70
2022/12/15 06:21:36;;;;;;;71.87;30.47;;;;;;;-6.08;100.00;100227.28;4975495;28;20614;-70
2022/12/15 06:24:04;;;;;;;73.20;31.40;;;;;;;-6.00;100.00;100230.41;4975816;28;20037;-70
2022/12/15 06:26:38;;;;;;;63.13;26.70;;;;;;;-6.12;100.00;100236.25;4975025;28;20038;-70
2022/12/15 06:29:07;;;;;;;69.27;30.30;;;;;;;-6.49;100.00;100243.13;4976179;28;20487;-69
2022/12/15 06:31:33;;;;;;;77.10;31.60;;;;;;;-6.62;100.00;100242.78;4992507;28;20022;-69
2022/12/15 06:33:59;;;;;;;69.37;31.10;;;;;;;-6.56;100.00;100241.69;4992433;28;20034;-70
2022/12/15 06:36:24;;;;;;;78.60;31.30;;;;;;;-6.53;100.00;100244.16;4974919;28;20029;-70
2022/12/15 06:38:50;;;;;;;78.37;30.43;;;;;;;-6.44;100.00;100245.56;4992700;28;20113;-70
2022/12/15 06:41:18;;;;;;;73.33;31.03;;;;;;;-6.39;100.00;100257.63;4992675;28;20025;-70
2022/12/15 06:43:57;;;;;;;83.00;30.03;;;;;;;-6.54;100.00;100250.38;4975749;28;20034;-70
2022/12/15 06:46:24;;;;;;;83.70;31.60;;;;;;;-6.35;100.00;100251.28;4992763;28;20044;-70
2022/12/15 06:48:50;;;;;;;71.90;31.13;;;;;;;-6.43;100.00;100258.66;4975424;28;20531;-70
2022/12/15 06:51:16;;;;;;;66.73;30.50;;;;;;;-6.38;100.00;100248.78;4974853;28;20126;-70
2022/12/15 06:53:47;;;;;;;76.50;31.40;;;;;;;-6.44;100.00;100243.78;4975090;28;20026;-70
2022/12/15 06:56:22;;;;;;;73.57;30.15;;;;;;;-6.58;100.00;100248.81;4974957;28;20034;-70
2022/12/15 06:58:49;;;;;;;74.93;29.63;;;;;;;-6.47;100.00;100257.06;4974872;28;20041;-69
2022/12/15 07:01:15;;;;;;;75.27;28.70;;;;;;;-6.49;100.00;100253.66;4992172;28;20031;-69
2022/12/15 07:03:41;;;;;;;65.10;29.17;;;;;;;-6.43;100.00;100258.66;4992013;28;20552;-70
2022/12/15 07:06:09;;;;;;;70.20;30.20;;;;;;;-6.33;100.00;100265.22;4974509;28;20125;-70
2022/12/15 07:08:35;;;;;;;73.27;30.47;;;;;;;-6.30;100.00;100270.38;4992299;28;20027;-70
2022/12/15 07:11:05;;;;;;;74.90;30.27;;;;;;;-6.21;100.00;100268.25;4974920;28;20025;-70
2022/12/15 07:13:30;;;;;;;68.20;29.47;;;;;;;-6.30;100.00;100274.78;4975038;28;20057;-70
2022/12/15 07:16:00;;;;;;;76.80;32.50;;;;;;;-6.40;100.00;100279.59;4974471;28;20030;-70
2022/12/15 07:18:28;;;;;;;76.40;29.00;;;;;;;-6.52;100.00;100285.41;4974851;28;20061;-70
2022/12/15 07:20:54;;;;;;;79.03;31.60;;;;;;;-6.35;100.00;100293.41;4974689;28;20418;-70
2022/12/15 07:23:19;;;;;;;84.53;32.60;;;;;;;-6.45;100.00;100286.84;4974552;28;20090;-70
2022/12/15 07:25:45;;;;;;;79.43;30.40;;;;;;;-6.33;100.00;100286.28;4991686;28;20049;-70
2022/12/15 07:28:10;;;;;;;73.97;32.50;;;;;;;-6.31;100.00;100284.47;4974828;28;20062;-69
2022/12/15 07:30:36;;;;;;;84.50;29.60;;;;;;;-6.11;100.00;100306.47;4975255;28;20121;-70
2022/12/15 07:33:02;;;;;;;70.77;27.47;;;;;;;-6.03;100.00;100314.88;4972680;28;20081;-70
2022/12/15 07:35:28;;;;;;;64.33;27.33;;;;;;;-5.89;100.00;100312.44;4954681;28;20081;-70
2022/12/15 07:37:53;;;;;;;67.40;28.53;;;;;;;-5.96;100.00;100316.31;4983294;28;20113;-71
2022/12/15 07:40:18;;;;;;;75.13;28.37;;;;;;;-5.85;100.00;100314.03;4992704;28;20025;-71
2022/12/15 07:42:44;;;;;;;72.60;30.70;;;;;;;-5.88;100.00;100319.44;4974890;28;20037;-71
2022/12/15 07:45:10;;;;;;;66.50;26.63;;;;;;;-5.85;100.00;100340.41;4974615;28;20027;-71
2022/12/15 07:47:35;;;;;;;66.87;26.90;;;;;;;-5.65;100.00;100336.03;4979106;28;20034;-71
2022/12/15 07:50:01;;;;;;;75.47;28.37;;;;;;;-5.69;100.00;100334.44;4978970;28;20113;-71
2022/12/15 07:52:26;;;;;;;68.03;29.07;;;;;;;-5.62;100.00;100341.16;4955019;28;20443;-70
2022/12/15 07:54:52;;;;;;;79.67;29.97;;;;;;;-5.61;100.00;100343.69;4970235;28;20033;-69
2022/12/15 07:57:17;;;;;;;74.63;29.73;;;;;;;-5.64;100.00;100348.28;4954514;28;20023;-69
2022/12/15 07:59:43;;;;;;;79.27;29.03;;;;;;;-5.47;100.00;100356.28;4953883;28;20027;-72
2022/12/15 08:02:10;;;;;;;67.87;27.07;;;;;;;-5.19;100.00;100366.44;4971400;28;20024;-72
2022/12/15 08:04:36;;;;;;;77.47;28.33;;;;;;;-5.11;100.00;100352.88;4973022;28;20018;-72
2022/12/15 08:07:01;;;;;;;76.07;28.90;;;;;;;-5.30;100.00;100356.34;4973486;28;20088;-72
2022/12/15 08:09:27;;;;;;;60.30;27.50;;;;;;;-5.18;100.00;100350.50;4972948;28;20060;-72
2022/12/15 08:11:52;;;;;;;76.30;30.17;;;;;;;-5.00;100.00;100356.72;4989494;28;20057;-72
2022/12/15 08:14:18;;;;;;;80.40;30.60;;;;;;;-5.03;100.00;100353.34;4991051;28;20026;-71
2022/12/15 08:16:44;;;;;;;70.47;29.40;;;;;;;-4.89;100.00;100369.41;4972419;28;20049;-71
2022/12/15 08:19:12;;;;;;;76.10;28.47;;;;;;;-4.78;100.00;100372.38;4974251;28;20033;-71
2022/12/15 08:21:41;;;;;;;69.93;28.70;;;;;;;-4.84;100.00;100362.13;4990313;28;20030;-72
2022/12/15 08:24:08;;;;;;;70.77;28.47;;;;;;;-4.86;100.00;100374.53;4972475;28;20023;-69
2022/12/15 08:26:34;;;;;;;73.97;30.13;;;;;;;-4.77;100.00;100374.09;4973874;28;20034;-72
2022/12/15 08:29:04;;;;;;;67.37;27.20;;;;;;;-4.60;100.00;100375.06;4972839;28;20340;-71
2022/12/15 08:31:32;;;;;;;73.63;31.60;;;;;;;-4.81;100.00;100383.09;4972935;28;20026;-71
2022/12/15 08:33:58;;;;;;;82.43;28.97;;;;;;;-4.66;100.00;100387.63;4974228;28;20419;-71
2022/12/15 08:36:23;;;;;;;69.80;29.63;;;;;;;-4.49;100.00;100388.63;4989850;28;20030;-72
2022/12/15 08:38:49;;;;;;;84.77;31.87;;;;;;;-4.57;100.00;100396.03;4973476;28;20040;-72
2022/12/15 08:41:22;;;;;;;85.83;29.83;;;;;;;-4.30;100.00;100400.00;4972687;28;20037;-72
2022/12/15 08:43:48;;;;;;;66.00;27.67;;;;;;;-4.19;100.00;100396.81;4972623;28;20041;-71
2022/12/15 08:46:19;;;;;;;70.83;29.27;;;;;;;-3.94;100.00;100397.28;4973117;28;20041;-71
2022/12/15 08:48:45;;;;;;;78.60;28.50;;;;;;;-4.11;100.00;100390.22;4990246;28;20081;-71
2022/12/15 08:51:13;;;;;;;69.93;28.47;;;;;;;-3.97;100.00;100386.88;4972651;28;20030;-71
2022/12/15 08:53:38;;;;;;;78.37;28.33;;;;;;;-3.80;100.00;100399.22;4990714;28;20038;-73
2022/12/15 08:56:07;;;;;;;66.80;29.07;;;;;;;-3.87;100.00;100392.53;4973218;28;20109;-72
2022/12/15 08:58:32;;;;;;;79.57;31.80;;;;;;;-3.60;100.00;100390.25;4971826;28;20062;-72
2022/12/15 09:01:07;;;;;;;93.17;32.40;;;;;;;-3.61;100.00;100394.69;4972467;28;20050;-72
2022/12/15 09:03:33;;;;;;;89.57;31.10;;;;;;;-3.38;100.00;100395.28;4972721;28;20034;-74
2022/12/15 09:06:10;;;;;;;78.63;31.50;;;;;;;-3.44;100.00;100390.31;4972777;28;20026;-72
2022/12/15 09:08:36;;;;;;;65.27;27.10;;;;;;;-3.23;100.00;100391.81;4972830;28;20030;-72
2022/12/15 09:11:02;;;;;;;73.33;28.87;;;;;;;-3.18;100.00;100384.47;4971967;28;20022;-72
2022/12/15 09:13:27;;;;;;;83.00;28.87;;;;;;;-3.12;100.00;100397.38;4970925;28;20030;-72
2022/12/15 09:16:07;;;;;;;68.80;29.23;;;;;;;-2.93;100.00;100391.09;4988986;28;20034;-71
2022/12/15 09:18:33;;;;;;;58.20;27.23;;;;;;;-2.87;100.00;100390.72;4973490;28;20030;-71
2022/12/15 09:21:03;;;;;;;71.43;25.37;;;;;;;-2.70;100.00;100388.00;4970885;28;20031;-71
2022/12/15 09:23:30;;;;;;;60.23;26.67;;;;;;;-2.56;100.00;100390.72;4972165;28;20058;-71
2022/12/15 09:26:07;;;;;;;70.33;26.83;;;;;;;-2.61;100.00;100386.63;4972548;28;20089;-71
2022/12/15 09:28:33;;;;;;;60.50;25.20;;;;;;;-2.37;100.00;100392.34;4972160;28;20023;-72
2022/12/15 09:31:20;;;;;;;62.80;25.97;;;;;;;-2.10;100.00;100392.53;4971084;28;20132;-71
2022/12/15 09:33:46;;;;;;;62.93;25.73;;;;;;;-2.24;100.00;100388.03;4989196;28;20018;-72
2022/12/15 09:36:12;;;;;;;92.90;26.37;;;;;;;-2.19;100.00;100393.94;4988697;28;20341;-72
2022/12/15 09:38:39;;;;;;;68.33;24.17;;;;;;;-2.12;100.00;100400.59;4972220;28;20041;-71
2022/12/15 09:41:26;;;;;;;68.13;25.83;;;;;;;-2.19;100.00;100408.03;4971045;28;20034;-71
2022/12/15 09:44:04;;;;;;;89.43;26.63;;;;;;;-2.04;100.00;100408.94;4989513;28;20189;-73
2022/12/15 09:46:53;;;;;;;61.43;25.80;;;;;;;-2.26;100.00;100408.50;4988335;28;20076;-73
2022/12/15 09:49:59;;;;;;;58.30;25.63;;;;;;;-2.33;100.00;100404.47;4972080;28;20037;-73
2022/12/15 09:52:34;;;;;;;67.70;25.33;;;;;;;-2.13;100.00;100409.50;4971812;28;20045;-71
2022/12/15 09:55:00;;;;;;;67.10;27.27;;;;;;;-2.17;100.00;100402.63;4971793;28;20110;-71
2022/12/15 09:57:32;;;;;;;87.87;27.83;;;;;;;-2.15;100.00;100416.69;4970878;28;20037;-71
2022/12/15 10:00:06;;;;;;;84.88;25.60;;;;;;;-2.09;100.00;100424.25;4972522;28;20045;-72
2022/12/15 10:02:54;;;;;;;70.47;26.70;;;;;;;-2.21;100.00;100422.34;4971917;28;20037;-72
2022/12/15 10:05:54;;;;;;;58.20;26.07;;;;;;;-2.31;100.00;100422.00;4971592;28;20057;-71
2022/12/15 10:08:22;;;;;;;63.33;28.30;;;;;;;-2.36;100.00;100428.50;4971905;28;20069;-72
2022/12/15 10:10:54;;;;;;;84.37;28.93;;;;;;;-2.34;100.00;100410.72;4970082;28;20026;-72
2022/12/15 10:13:41;;;;;;;66.22;27.90;;;;;;;-2.09;100.00;100411.00;4970791;28;20061;-72
2022/12/15 10:16:33;;;;;;;63.30;28.50;;;;;;;-1.72;100.00;100408.84;4970538;28;20045;-72
2022/12/15 10:19:13;;;;;;;;;;;;;;;-1.47;100.00;100409.06;4972585;28;20022;-72
2022/12/15 10:21:38;;;;;;;70.07;29.97;;;;;;;-1.77;100.00;100395.00;4971331;28;20365;-71
2022/12/15 10:24:15;;;;;;;72.43;32.13;;;;;;;-1.80;100.00;100401.34;4970551;28;20022;-72
2022/12/15 10:26:41;;;;;;;68.60;32.07;;;;;;;-1.94;100.00;100403.97;4970163;28;20098;-72
2022/12/15 10:29:45;;;;;;;76.47;31.37;;;;;;;-1.78;100.00;100398.59;4971106;28;20065;-72
2022/12/15 10:42:48;;;;;;;72.30;30.80;;;;;;;-1.70;100.00;100396.31;5042776;28;20408;-72
2022/12/15 10:45:32;;;;;;;81.37;34.23;;;;;;;-1.46;100.00;100394.84;5042304;28;20029;-72
2022/12/15 10:47:58;;;;;;;85.73;34.53;;;;;;;-1.45;100.00;100396.56;5005385;28;20026;-72
2022/12/15 10:50:26;;;;;;;87.47;32.87;;;;;;;-1.20;100.00;100409.19;5005518;28;20022;-71
2022/12/15 10:52:54;;;;;;;70.50;31.30;;;;;;;-1.48;100.00;100402.06;5005599;28;20017;-72
2022/12/15 10:55:40;;;;;;;60.57;28.47;;;;;;;-1.30;100.00;100404.56;5005157;28;20057;-72
2022/12/15 10:58:17;;;;;;;61.63;26.40;;;;;;;-1.12;100.00;100403.38;5005404;28;20034;-72
2022/12/15 11:00:43;;;;;;;66.10;27.90;;;;;;;-1.01;100.00;100406.25;5037849;28;20022;-72
2022/12/15 11:03:26;;;;;;;68.10;32.13;;;;;;;-1.50;100.00;100409.28;5005679;28;20527;-72
2022/12/15 11:05:54;;;;;;;63.60;28.03;;;;;;;-1.35;100.00;100396.00;5004928;28;20115;-72
2022/12/15 11:08:19;;;;;;;64.73;29.63;;;;;;;-1.06;100.00;100408.31;5005568;28;20022;-72
2022/12/15 11:13:40;;;;;;;65.80;26.70;;;;;;;-1.11;100.00;100399.78;5023342;28;20033;-72
2022/12/15 11:16:16;;;;;;;58.50;25.73;;;;;;;-0.90;100.00;100393.13;5022263;28;20085;-73
2022/12/15 11:18:52;;;;;;;58.13;26.73;;;;;;;-0.73;100.00;100393.84;5022087;28;20033;-72
2022/12/15 11:21:29;;;;;;;60.93;26.23;;;;;;;-0.61;100.00;100398.38;5004676;28;20113;-72
2022/12/15 11:24:15;;;;;;;60.20;25.60;;;;;;;-0.43;100.00;100397.19;5004302;28;20032;-72
2022/12/15 11:26:52;;;;;;;59.17;24.53;;;;;;;-0.18;100.00;100398.25;5004991;28;20037;-74
2022/12/15 11:29:27;;;;;;;56.47;22.27;;;;;;;-0.04;100.00;100400.84;5037126;28;20116;-73
2022/12/15 11:31:53;;;;;;;65.30;24.67;;;;;;;-0.39;100.00;100409.38;5004170;28;20028;-72
2022/12/15 11:34:24;;;;;;;57.70;23.27;;;;;;;-0.44;100.00;100400.81;5023011;28;20036;-72
2022/12/15 11:37:06;;;;;;;61.70;23.90;;;;;;;-0.34;100.00;100411.69;5004475;28;20028;-72
2022/12/15 11:39:50;;;;;;;55.57;22.83;;;;;;;-0.51;100.00;100404.84;5037158;28;20050;-73
2022/12/15 11:42:47;;;;;;;47.50;19.17;;;;;;;-0.24;100.00;100401.31;4999745;28;20034;-73
2022/12/15 11:45:29;;;;;;;63.53;20.97;;;;;;;-0.02;100.00;100412.25;5024358;28;20068;-72
2022/12/15 11:48:33;;;;;;;38.37;20.63;;;;;;;-0.01;100.00;100413.94;4991442;28;20109;-72
2022/12/15 11:51:13;;;;;;;50.57;20.03;;;;;;;0.17;100.00;100418.03;4990207;28;20561;-73
2022/12/15 11:54:06;;;;;;;53.00;22.33;;;;;;;0.37;100.00;100429.16;4990676;28;20061;-72
2022/12/15 11:56:43;;;;;;;55.87;17.53;;;;;;;0.41;100.00;100425.34;5024466;28;20037;-73
2022/12/15 11:59:37;;;;;;;41.80;18.83;;;;;;;0.52;100.00;100433.41;4992149;28;20032;-72
2022/12/15 12:02:27;;;;;;;42.30;20.77;;;;;;;0.50;100.00;100430.03;5007947;28;20028;-72
2022/12/15 12:05:04;;;;;;;44.50;21.07;;;;;;;0.56;100.00;100423.44;4991319;28;20036;-73
2022/12/15 12:07:47;;;;;;;66.13;20.40;;;;;;;0.46;100.00;100423.22;5008037;28;20025;-73
2022/12/15 12:10:38;;;;;;;43.07;19.30;;;;;;;0.37;100.00;100418.50;4992071;28;20045;-74
2022/12/15 12:13:27;;;;;;;40.67;15.80;;;;;;;0.36;100.00;100422.97;4992046;28;20030;-74
2022/12/15 12:16:20;;;;;;;45.80;17.70;;;;;;;0.19;100.00;100421.44;5008609;28;20024;-75
2022/12/15 12:19:08;;;;;;;41.33;17.93;;;;;;;0.56;100.00;100424.28;4992424;28;20504;-75
2022/12/15 12:21:41;;;;;;;34.17;13.80;;;;;;;0.49;100.00;100428.31;4991186;28;20021;-75
2022/12/15 12:24:22;;;;;;;34.10;12.97;;;;;;;0.77;98.27;100427.25;4991414;28;20112;-75
2022/12/15 12:26:59;;;;;;;30.70;12.82;;;;;;;0.77;97.33;100422.78;4992037;28;20117;-75
2022/12/15 12:29:31;;;;;;;29.10;12.47;;;;;;;1.02;97.23;100421.06;4991299;28;20030;-74
2022/12/15 12:32:01;;;;;;;24.87;11.10;;;;;;;1.03;96.87;100417.44;4990814;28;20500;-74
2022/12/15 12:35:02;;;;;;;27.37;11.73;;;;;;;0.96;97.18;100437.50;5022921;28;20022;-74
2022/12/15 12:37:56;;;;;;;34.20;11.13;;;;;;;0.69;98.05;100441.13;5023458;28;20057;-75
2022/12/15 12:40:25;;;;;;;31.03;12.03;;;;;;;0.85;96.72;100437.38;4990010;28;20026;-74
2022/12/15 12:42:55;;;;;;;26.10;12.03;;;;;;;0.93;96.68;100437.72;5009323;28;20029;-74
2022/12/15 12:45:48;;;;;;;27.93;12.90;;;;;;;0.89;98.60;100430.88;4993059;28;20087;-74
2022/12/15 12:48:37;;;;;;;34.60;12.00;;;;;;;0.86;97.42;100433.78;4993317;28;20022;-74
2022/12/15 12:51:21;;;;;;;34.50;13.20;;;;;;;0.89;97.57;100428.22;5011809;28;20029;-75
2022/12/15 12:53:46;;;;;;;36.03;13.47;;;;;;;0.89;97.61;100425.56;4992697;28;20022;-76
2022/12/15 12:56:31;;;;;;;27.30;12.27;;;;;;;1.04;97.71;100424.47;4992663;28;20053;-76
2022/12/15 12:59:06;;;;;;;31.97;11.67;;;;;;;1.02;96.55;100421.06;5011522;28;20101;-73
2022/12/15 13:01:34;;;;;;;31.53;13.13;;;;;;;1.06;96.55;100406.56;4992687;28;20018;-74
2022/12/15 13:04:11;;;;;;;25.57;12.33;;;;;;;1.17;97.26;100414.63;5010623;28;20022;-73
2022/12/15 13:06:40;;;;;;;27.23;11.93;;;;;;;1.10;96.82;100418.72;4993163;28;20018;-73
2022/12/15 13:09:20;;;;;;;31.37;13.43;;;;;;;1.33;96.67;100420.59;4994548;28;20090;-75
2022/12/15 13:11:52;;;;;;;22.63;10.67;;;;;;;1.12;97.78;100422.13;4993336;28;20021;-75
2022/12/15 13:14:39;;;;;;;32.05;13.07;;;;;;;1.11;97.60;100425.78;5010204;28;20281;-75
2022/12/15 13:17:28;;;;;;;33.27;14.70;;;;;;;1.21;97.73;100432.13;4992800;28;20026;-75
2022/12/15 13:20:00;;;;;;;37.10;13.07;;;;;;;1.05;97.86;100432.38;4992600;28;20034;-74
2022/12/15 13:22:30;;;;;;;;;;;;;;;1.16;98.15;100420.94;4993510;28;20048;-74
2022/12/15 13:24:56;;;;;;;30.37;12.23;;;;;;;1.14;97.10;100417.53;4991842;28;19909;-75
2022/12/15 13:27:22;;;;;;;26.80;11.60;;;;;;;1.29;97.32;100413.75;4991378;28;20125;-74
2022/12/15 13:30:07;;;;;;;26.33;10.50;;;;;;;1.51;96.22;100412.22;5009782;28;20025;-75
2022/12/15 13:32:50;;;;;;;18.80;10.30;;;;;;;1.29;95.74;100411.09;4992968;28;20121;-74
2022/12/15 13:35:28;;;;;;;23.77;10.57;;;;;;;1.17;96.34;100419.97;4991586;28;20084;-74
2022/12/15 13:38:06;;;;;;;25.87;11.43;;;;;;;1.26;95.27;100418.47;5009335;28;20026;-74
2022/12/15 13:40:35;;;;;;;26.20;10.53;;;;;;;1.38;94.33;100427.41;4991291;28;20058;-73
2022/12/15 13:43:03;;;;;;;28.33;10.10;;;;;;;1.21;95.50;100431.28;4991934;28;20483;-75
2022/12/15 13:45:49;;;;;;;26.60;11.53;;;;;;;1.24;94.50;100431.94;4990507;28;20030;-74
2022/12/15 13:48:21;;;;;;;27.57;10.07;;;;;;;1.31;94.75;100422.53;4990743;28;20049;-75
2022/12/15 13:51:13;;;;;;;27.45;10.95;;;;;;;1.27;95.14;100431.69;4990451;28;20057;-75
2022/12/15 13:53:43;;;;;;;22.30;10.10;;;;;;;1.38;94.98;100422.09;4991328;28;20093;-74
2022/12/15 13:56:11;;;;;;;23.17;10.67;;;;;;;1.31;94.89;100443.88;5008371;28;20120;-74
2022/12/15 13:58:42;;;;;;;33.30;11.23;;;;;;;1.48;93.90;100425.78;5008492;28;20034;-74
2022/12/15 14:01:29;;;;;;;25.10;10.75;;;;;;;1.48;93.63;100428.44;4992765;28;20026;-75
2022/12/15 14:04:11;;;;;;;26.23;11.03;;;;;;;1.47;94.09;100422.25;4990701;28;20033;-75